sensor_id;sensor_type;location;lat;lon;timestamp;pressure;altitude;pressure_sealevel;temperature;humidity
85545;BME280;75982;52.834;13.846;2024-03-23T00:54:10;100259.63;;;7.64;91.79
85545;BME280;75982;52.834;13.846;2024-03-23T00:56:36;100253.69;;;7.62;91.41
85545;BME280;75982;52.834;13.846;2024-03-23T00:59:01;100259.78;;;7.61;91.47
85545;BME280;75982;52.834;13.846;2024-03-23T01:01:27;100264.16;;;7.59;91.16
85545;BME280;75982;52.834;13.846;2024-03-23T01:03:52;100265.09;;;7.58;90.97
85545;BME280;75982;52.834;13.846;2024-03-23T01:06:18;100262.56;;;7.57;90.82
85545;BME280;75982;52.834;13.846;2024-03-23T01:08:43;100265.81;;;7.62;90.96
85545;BME280;75982;52.834;13.846;2024-03-23T01:11:09;100262.50;;;7.58;90.09
85545;BME280;75982;52.834;13.846;2024-03-23T01:13:35;100263.41;;;7.57;90.84
85545;BME280;75982;52.834;13.846;2024-03-23T01:16:00;100250.38;;;7.59;90.48
85545;BME280;75982;52.834;13.846;2024-03-23T01:18:26;100247.78;;;7.59;90.65
85545;BME280;75982;52.834;13.846;2024-03-23T01:20:51;100247.91;;;7.56;90.21
85545;BME280;75982;52.834;13.846;2024-03-23T01:23:17;100240.13;;;7.56;90.58
85545;BME280;75982;52.834;13.846;2024-03-23T01:25:42;100247.16;;;7.54;91.20
85545;BME280;75982;52.834;13.846;2024-03-23T01:28:08;100246.38;;;7.52;90.57
85545;BME280;75982;52.834;13.846;2024-03-23T01:30:34;100240.97;;;7.56;90.92
85545;BME280;75982;52.834;13.846;2024-03-23T01:33:00;100237.34;;;7.42;91.38
85545;BME280;75982;52.834;13.846;2024-03-23T01:35:26;100241.19;;;7.52;90.83
85545;BME280;75982;52.834;13.846;2024-03-23T01:37:52;100242.97;;;7.51;90.94
85545;BME280;75982;52.834;13.846;2024-03-23T01:40:17;100239.94;;;7.42;92.17
85545;BME280;75982;52.834;13.846;2024-03-23T01:42:55;100234.47;;;7.48;90.88
85545;BME280;75982;52.834;13.846;2024-03-23T01:45:20;100223.50;;;7.43;90.76
85545;BME280;75982;52.834;13.846;2024-03-23T01:47:46;100225.03;;;7.47;91.50
85545;BME280;75982;52.834;13.846;2024-03-23T01:50:11;100220.25;;;7.38;92.16
85545;BME280;75982;52.834;13.846;2024-03-23T01:52:37;100207.94;;;7.43;91.31
85545;BME280;75982;52.834;13.846;2024-03-23T01:55:03;100209.97;;;7.36;92.13
85545;BME280;75982;52.834;13.846;2024-03-23T01:57:29;100203.00;;;7.37;92.46
85545;BME280;75982;52.834;13.846;2024-03-23T01:59:55;100202.31;;;7.33;91.89
85545;BME280;75982;52.834;13.846;2024-03-23T02:02:20;100195.19;;;7.38;92.03
85545;BME280;75982;52.834;13.846;2024-03-23T02:04:46;100185.81;;;7.36;92.04
85545;BME280;75982;52.834;13.846;2024-03-23T02:07:11;100185.56;;;7.40;91.81
85545;BME280;75982;52.834;13.846;2024-03-23T02:09:37;100187.69;;;7.32;92.79
85545;BME280;75982;52.834;13.846;2024-03-23T02:12:03;100193.34;;;7.40;92.47
85545;BME280;75982;52.834;13.846;2024-03-23T02:14:29;100182.28;;;7.37;92.23
85545;BME280;75982;52.834;13.846;2024-03-23T02:16:54;100173.31;;;7.44;91.42
85545;BME280;75982;52.834;13.846;2024-03-23T02:19:20;100174.44;;;7.38;92.42
85545;BME280;75982;52.834;13.846;2024-03-23T02:21:45;100166.03;;;7.33;92.34
85545;BME280;75982;52.834;13.846;2024-03-23T02:24:11;100163.44;;;7.33;92.53
85545;BME280;75982;52.834;13.846;2024-03-23T02:26:36;100162.16;;;7.42;91.97
85545;BME280;75982;52.834;13.846;2024-03-23T02:29:02;100163.38;;;7.35;91.91
85545;BME280;75982;52.834;13.846;2024-03-23T02:31:27;100151.47;;;7.31;92.02
85545;BME280;75982;52.834;13.846;2024-03-23T02:33:53;100152.16;;;7.34;91.97
85545;BME280;75982;52.834;13.846;2024-03-23T02:36:18;100155.22;;;7.42;91.75
85545;BME280;75982;52.834;13.846;2024-03-23T02:38:44;100145.06;;;7.38;92.16
85545;BME280;75982;52.834;13.846;2024-03-23T02:41:09;100140.78;;;7.19;94.04
85545;BME280;75982;52.834;13.846;2024-03-23T02:43:35;100134.63;;;7.03;94.80
85545;BME280;75982;52.834;13.846;2024-03-23T02:46:00;100123.16;;;7.26;93.07
85545;BME280;75982;52.834;13.846;2024-03-23T02:48:26;100127.72;;;7.40;92.09
85545;BME280;75982;52.834;13.846;2024-03-23T02:50:52;100126.97;;;7.19;93.29
85545;BME280;75982;52.834;13.846;2024-03-23T02:53:17;100130.72;;;7.13;94.72
85545;BME280;75982;52.834;13.846;2024-03-23T02:55:43;100126.28;;;7.15;94.54
85545;BME280;75982;52.834;13.846;2024-03-23T02:58:09;100131.94;;;7.23;94.12
85545;BME280;75982;52.834;13.846;2024-03-23T03:00:34;100133.16;;;7.34;92.62
85545;BME280;75982;52.834;13.846;2024-03-23T03:03:00;100127.00;;;7.36;91.62
85545;BME280;75982;52.834;13.846;2024-03-23T03:05:26;100123.66;;;7.34;91.31
85545;BME280;75982;52.834;13.846;2024-03-23T03:07:51;100128.28;;;7.28;91.14
85545;BME280;75982;52.834;13.846;2024-03-23T03:10:17;100114.44;;;7.29;90.08
85545;BME280;75982;52.834;13.846;2024-03-23T03:12:43;100111.16;;;7.25;90.83
85545;BME280;75982;52.834;13.846;2024-03-23T03:15:09;100117.97;;;7.26;91.06
85545;BME280;75982;52.834;13.846;2024-03-23T03:17:34;100123.84;;;7.30;89.89
85545;BME280;75982;52.834;13.846;2024-03-23T03:20:00;100116.25;;;7.26;89.39
85545;BME280;75982;52.834;13.846;2024-03-23T03:22:26;100117.28;;;7.22;90.14
85545;BME280;75982;52.834;13.846;2024-03-23T03:24:51;100117.44;;;7.19;89.87
85545;BME280;75982;52.834;13.846;2024-03-23T03:27:17;100112.47;;;7.15;90.44
85545;BME280;75982;52.834;13.846;2024-03-23T03:29:43;100105.06;;;7.07;90.78
85545;BME280;75982;52.834;13.846;2024-03-23T03:32:08;100101.16;;;7.17;90.85
85545;BME280;75982;52.834;13.846;2024-03-23T03:34:34;100096.25;;;7.11;90.31
85545;BME280;75982;52.834;13.846;2024-03-23T03:36:59;100095.25;;;7.14;90.31
85545;BME280;75982;52.834;13.846;2024-03-23T03:39:25;100096.78;;;7.18;89.55
85545;BME280;75982;52.834;13.846;2024-03-23T03:41:51;100095.13;;;7.17;89.35
85545;BME280;75982;52.834;13.846;2024-03-23T03:44:17;100086.72;;;7.12;89.93
85545;BME280;75982;52.834;13.846;2024-03-23T03:46:43;100081.38;;;7.15;90.07
85545;BME280;75982;52.834;13.846;2024-03-23T03:49:08;100082.91;;;7.19;89.56
85545;BME280;75982;52.834;13.846;2024-03-23T03:51:34;100085.81;;;7.13;89.45
85545;BME280;75982;52.834;13.846;2024-03-23T03:54:00;100083.38;;;7.10;89.86
85545;BME280;75982;52.834;13.846;2024-03-23T03:56:25;100079.78;;;7.12;90.21
85545;BME280;75982;52.834;13.846;2024-03-23T03:58:51;100076.56;;;7.07;90.11
85545;BME280;75982;52.834;13.846;2024-03-23T04:01:16;100075.59;;;7.10;89.88
85545;BME280;75982;52.834;13.846;2024-03-23T04:03:43;100065.22;;;7.10;90.08
85545;BME280;75982;52.834;13.846;2024-03-23T04:06:09;100074.97;;;7.05;90.06
85545;BME280;75982;52.834;13.846;2024-03-23T04:08:35;100067.25;;;7.03;90.74
85545;BME280;75982;52.834;13.846;2024-03-23T04:11:01;100064.75;;;7.02;90.53
85545;BME280;75982;52.834;13.846;2024-03-23T04:13:26;100062.06;;;7.03;90.62
85545;BME280;75982;52.834;13.846;2024-03-23T04:15:55;100056.97;;;7.02;90.89
85545;BME280;75982;52.834;13.846;2024-03-23T04:18:21;100054.28;;;7.03;90.04
85545;BME280;75982;52.834;13.846;2024-03-23T04:20:48;100055.22;;;7.02;90.29
85545;BME280;75982;52.834;13.846;2024-03-23T04:23:14;100055.34;;;6.99;91.08
85545;BME280;75982;52.834;13.846;2024-03-23T04:25:39;100055.59;;;6.95;90.83
85545;BME280;75982;52.834;13.846;2024-03-23T04:28:05;100037.16;;;7.01;90.92
85545;BME280;75982;52.834;13.846;2024-03-23T04:30:31;100042.66;;;6.95;91.39
85545;BME280;75982;52.834;13.846;2024-03-23T04:32:56;100043.56;;;6.94;91.70
85545;BME280;75982;52.834;13.846;2024-03-23T04:35:22;100041.13;;;6.91;90.76
85545;BME280;75982;52.834;13.846;2024-03-23T04:37:48;100032.72;;;6.86;91.86
85545;BME280;75982;52.834;13.846;2024-03-23T04:40:13;100047.09;;;6.91;90.49
85545;BME280;75982;52.834;13.846;2024-03-23T04:42:39;100043.81;;;6.88;91.16
85545;BME280;75982;52.834;13.846;2024-03-23T04:45:05;100039.28;;;6.93;91.19
85545;BME280;75982;52.834;13.846;2024-03-23T04:47:31;100037.09;;;6.84;90.95
85545;BME280;75982;52.834;13.846;2024-03-23T04:49:56;100028.53;;;6.83;91.59
85545;BME280;75982;52.834;13.846;2024-03-23T04:52:22;100024.47;;;6.77;91.59
85545;BME280;75982;52.834;13.846;2024-03-23T04:54:48;100016.06;;;6.72;91.52
85545;BME280;75982;52.834;13.846;2024-03-23T04:57:13;100013.25;;;6.77;91.12
85545;BME280;75982;52.834;13.846;2024-03-23T04:59:39;100013.19;;;6.78;91.84
85545;BME280;75982;52.834;13.846;2024-03-23T05:02:04;100015.94;;;6.75;91.83
85545;BME280;75982;52.834;13.846;2024-03-23T05:04:30;100014.78;;;6.81;91.22
85545;BME280;75982;52.834;13.846;2024-03-23T05:06:56;100017.00;;;6.89;89.96
85545;BME280;75982;52.834;13.846;2024-03-23T05:09:21;100019.91;;;6.83;90.33
85545;BME280;75982;52.834;13.846;2024-03-23T05:11:47;100020.69;;;6.66;91.77
85545;BME280;75982;52.834;13.846;2024-03-23T05:14:13;100015.94;;;6.75;91.04
85545;BME280;75982;52.834;13.846;2024-03-23T05:16:40;100016.22;;;6.69;91.01
85545;BME280;75982;52.834;13.846;2024-03-23T05:19:05;100009.50;;;6.65;91.43
85545;BME280;75982;52.834;13.846;2024-03-23T05:21:31;100003.56;;;6.63;91.61
85545;BME280;75982;52.834;13.846;2024-03-23T05:23:56;100003.34;;;6.68;91.12
85545;BME280;75982;52.834;13.846;2024-03-23T05:26:22;100004.41;;;6.64;91.57
85545;BME280;75982;52.834;13.846;2024-03-23T05:28:48;100002.50;;;6.67;91.09
85545;BME280;75982;52.834;13.846;2024-03-23T05:31:29;100007.75;;;6.66;91.80
85545;BME280;75982;52.834;13.846;2024-03-23T05:33:55;99995.44;;;6.71;90.55
85545;BME280;75982;52.834;13.846;2024-03-23T05:36:21;99998.19;;;6.68;91.07
85545;BME280;75982;52.834;13.846;2024-03-23T05:38:47;99998.44;;;6.62;91.26
85545;BME280;75982;52.834;13.846;2024-03-23T05:41:13;99996.50;;;6.67;91.23
85545;BME280;75982;52.834;13.846;2024-03-23T05:43:39;99995.44;;;6.71;91.39
85545;BME280;75982;52.834;13.846;2024-03-23T05:46:05;100002.31;;;6.72;91.51
85545;BME280;75982;52.834;13.846;2024-03-23T05:48:31;99998.19;;;6.68;90.88
85545;BME280;75982;52.834;13.846;2024-03-23T05:50:57;99995.03;;;6.61;91.24
85545;BME280;75982;52.834;13.846;2024-03-23T05:53:23;100000.78;;;6.68;90.82
85545;BME280;75982;52.834;13.846;2024-03-23T05:55:49;99993.97;;;6.65;91.52
85545;BME280;75982;52.834;13.846;2024-03-23T05:58:16;99988.72;;;6.67;91.46
85545;BME280;75982;52.834;13.846;2024-03-23T06:00:42;99979.41;;;6.46;92.57
85545;BME280;75982;52.834;13.846;2024-03-23T06:03:08;99979.28;;;6.66;91.35
85545;BME280;75982;52.834;13.846;2024-03-23T06:05:34;99972.81;;;6.74;91.21
85545;BME280;75982;52.834;13.846;2024-03-23T06:08:00;99970.28;;;6.73;91.41
85545;BME280;75982;52.834;13.846;2024-03-23T06:10:25;99962.16;;;6.81;90.78
85545;BME280;75982;52.834;13.846;2024-03-23T06:12:51;99976.66;;;6.49;91.54
85545;BME280;75982;52.834;13.846;2024-03-23T06:15:20;99969.03;;;6.46;92.09
85545;BME280;75982;52.834;13.846;2024-03-23T06:17:46;99968.63;;;6.72;91.41
85545;BME280;75982;52.834;13.846;2024-03-23T06:20:12;99964.91;;;6.77;90.62
85545;BME280;75982;52.834;13.846;2024-03-23T06:22:38;99965.31;;;6.68;91.23
85545;BME280;75982;52.834;13.846;2024-03-23T06:25:04;99969.91;;;6.63;91.52
85545;BME280;75982;52.834;13.846;2024-03-23T06:27:30;99954.91;;;6.70;91.34
85545;BME280;75982;52.834;13.846;2024-03-23T06:29:56;99949.72;;;6.70;91.38
85545;BME280;75982;52.834;13.846;2024-03-23T06:32:22;99941.28;;;6.66;91.45
85545;BME280;75982;52.834;13.846;2024-03-23T06:34:47;99945.00;;;6.78;91.58
85545;BME280;75982;52.834;13.846;2024-03-23T06:37:13;99944.22;;;6.76;90.43
85545;BME280;75982;52.834;13.846;2024-03-23T06:39:39;99947.75;;;6.75;90.94
85545;BME280;75982;52.834;13.846;2024-03-23T06:42:05;99942.09;;;6.67;91.43
85545;BME280;75982;52.834;13.846;2024-03-23T06:44:31;99940.63;;;6.61;90.88
85545;BME280;75982;52.834;13.846;2024-03-23T06:46:57;99946.06;;;6.91;90.86
85545;BME280;75982;52.834;13.846;2024-03-23T06:49:24;99950.88;;;6.82;89.52
85545;BME280;75982;52.834;13.846;2024-03-23T06:51:49;99936.78;;;6.70;91.16
85545;BME280;75982;52.834;13.846;2024-03-23T06:54:19;99931.81;;;6.48;92.79
85545;BME280;75982;52.834;13.846;2024-03-23T06:56:45;99934.44;;;6.29;94.45
85545;BME280;75982;52.834;13.846;2024-03-23T06:59:11;99923.41;;;6.07;96.49
85545;BME280;75982;52.834;13.846;2024-03-23T07:01:36;99924.47;;;6.03;97.28
85545;BME280;75982;52.834;13.846;2024-03-23T07:04:02;99931.78;;;6.12;95.15
85545;BME280;75982;52.834;13.846;2024-03-23T07:06:28;99929.78;;;6.00;94.80
85545;BME280;75982;52.834;13.846;2024-03-23T07:08:53;99928.13;;;5.79;92.71
85545;BME280;75982;52.834;13.846;2024-03-23T07:11:20;99925.56;;;5.98;92.41
85545;BME280;75982;52.834;13.846;2024-03-23T07:13:46;99920.38;;;5.98;91.04
85545;BME280;75982;52.834;13.846;2024-03-23T07:16:13;99911.66;;;6.00;92.34
85545;BME280;75982;52.834;13.846;2024-03-23T07:18:38;99916.69;;;6.03;92.09
85545;BME280;75982;52.834;13.846;2024-03-23T07:21:04;99909.06;;;5.81;91.67
85545;BME280;75982;52.834;13.846;2024-03-23T07:23:30;99914.69;;;5.71;92.39
85545;BME280;75982;52.834;13.846;2024-03-23T07:26:05;99909.50;;;5.91;92.53
85545;BME280;75982;52.834;13.846;2024-03-23T07:28:31;99902.81;;;6.04;92.26
85545;BME280;75982;52.834;13.846;2024-03-23T07:31:15;99903.66;;;6.05;92.52
85545;BME280;75982;52.834;13.846;2024-03-23T07:33:45;99901.16;;;6.22;91.87
85545;BME280;75982;52.834;13.846;2024-03-23T07:36:12;99901.09;;;6.05;91.19
85545;BME280;75982;52.834;13.846;2024-03-23T07:38:40;99895.16;;;6.03;92.59
85545;BME280;75982;52.834;13.846;2024-03-23T07:41:14;99899.75;;;6.15;92.91
85545;BME280;75982;52.834;13.846;2024-03-23T07:43:40;99898.03;;;6.15;92.65
85545;BME280;75982;52.834;13.846;2024-03-23T07:46:06;99898.38;;;6.08;92.87
85545;BME280;75982;52.834;13.846;2024-03-23T07:48:32;99895.56;;;5.94;92.68
85545;BME280;75982;52.834;13.846;2024-03-23T07:51:07;99890.00;;;6.03;92.37
85545;BME280;75982;52.834;13.846;2024-03-23T07:53:34;99895.16;;;6.03;92.54
85545;BME280;75982;52.834;13.846;2024-03-23T07:56:07;99892.59;;;6.20;92.17
85545;BME280;75982;52.834;13.846;2024-03-23T07:58:34;99890.06;;;6.54;90.98
85545;BME280;75982;52.834;13.846;2024-03-23T08:01:08;99887.25;;;5.87;88.54
85545;BME280;75982;52.834;13.846;2024-03-23T08:03:35;99888.31;;;6.02;89.26
85545;BME280;75982;52.834;13.846;2024-03-23T08:06:17;99883.66;;;6.08;91.57
85545;BME280;75982;52.834;13.846;2024-03-23T08:08:44;99889.47;;;6.13;91.69
85545;BME280;75982;52.834;13.846;2024-03-23T08:11:10;99889.44;;;6.32;91.42
85545;BME280;75982;52.834;13.846;2024-03-23T08:13:38;99870.91;;;6.75;88.96
85545;BME280;75982;52.834;13.846;2024-03-23T08:16:03;99871.94;;;6.54;87.66
85545;BME280;75982;52.834;13.846;2024-03-23T08:18:29;99873.44;;;6.24;88.45
85545;BME280;75982;52.834;13.846;2024-03-23T08:23:34;99871.41;;;6.12;89.03
85545;BME280;75982;52.834;13.846;2024-03-23T08:26:01;99874.47;;;6.56;88.28
85545;BME280;75982;52.834;13.846;2024-03-23T08:28:27;99868.31;;;6.75;86.45
85545;BME280;75982;52.834;13.846;2024-03-23T08:30:54;99869.66;;;6.65;86.94
85545;BME280;75982;52.834;13.846;2024-03-23T08:33:20;99864.28;;;6.53;88.32
85545;BME280;75982;52.834;13.846;2024-03-23T08:35:54;99858.09;;;6.55;88.17
85545;BME280;75982;52.834;13.846;2024-03-23T08:38:19;99857.25;;;6.55;89.39
85545;BME280;75982;52.834;13.846;2024-03-23T08:40:45;99856.31;;;6.39;87.40
85545;BME280;75982;52.834;13.846;2024-03-23T08:43:11;99857.66;;;6.64;85.81
85545;BME280;75982;52.834;13.846;2024-03-23T08:45:36;99853.50;;;6.26;86.68
85545;BME280;75982;52.834;13.846;2024-03-23T08:48:02;99850.78;;;6.29;85.03
85545;BME280;75982;52.834;13.846;2024-03-23T08:50:28;99855.03;;;5.94;86.13
85545;BME280;75982;52.834;13.846;2024-03-23T08:52:53;99853.66;;;6.23;87.33
85545;BME280;75982;52.834;13.846;2024-03-23T08:55:19;99845.31;;;5.99;88.62
85545;BME280;75982;52.834;13.846;2024-03-23T08:57:44;99844.19;;;5.86;87.30
85545;BME280;75982;52.834;13.846;2024-03-23T09:00:10;99839.16;;;5.64;86.52
85545;BME280;75982;52.834;13.846;2024-03-23T09:02:36;99833.91;;;5.85;87.51
85545;BME280;75982;52.834;13.846;2024-03-23T09:05:02;99837.34;;;5.85;88.97
85545;BME280;75982;52.834;13.846;2024-03-23T09:07:28;99831.84;;;5.74;90.12
85545;BME280;75982;52.834;13.846;2024-03-23T09:09:53;99831.69;;;5.96;90.30
85545;BME280;75982;52.834;13.846;2024-03-23T09:12:19;99829.59;;;6.21;88.54
85545;BME280;75982;52.834;13.846;2024-03-23T09:14:44;99826.63;;;6.11;88.12
85545;BME280;75982;52.834;13.846;2024-03-23T09:17:10;99836.09;;;6.47;86.55
85545;BME280;75982;52.834;13.846;2024-03-23T09:19:35;99838.66;;;6.29;87.31
85545;BME280;75982;52.834;13.846;2024-03-23T09:22:01;99843.47;;;6.54;84.82
85545;BME280;75982;52.834;13.846;2024-03-23T09:24:27;99842.69;;;6.18;86.40
85545;BME280;75982;52.834;13.846;2024-03-23T09:26:52;99843.41;;;6.56;85.57
85545;BME280;75982;52.834;13.846;2024-03-23T09:29:18;99844.75;;;6.28;87.86
85545;BME280;75982;52.834;13.846;2024-03-23T09:31:43;99841.16;;;6.14;89.30
85545;BME280;75982;52.834;13.846;2024-03-23T09:34:09;99834.56;;;6.25;87.51
85545;BME280;75982;52.834;13.846;2024-03-23T09:36:36;99840.78;;;6.21;88.79
85545;BME280;75982;52.834;13.846;2024-03-23T09:39:01;99841.41;;;5.91;88.79
85545;BME280;75982;52.834;13.846;2024-03-23T09:41:27;99840.69;;;6.06;86.19
85545;BME280;75982;52.834;13.846;2024-03-23T09:43:53;99832.91;;;6.06;87.08
85545;BME280;75982;52.834;13.846;2024-03-23T09:46:19;99837.56;;;5.99;87.24
85545;BME280;75982;52.834;13.846;2024-03-23T09:48:46;99833.50;;;5.75;86.74
85545;BME280;75982;52.834;13.846;2024-03-23T09:51:12;99839.31;;;5.61;87.21
85545;BME280;75982;52.834;13.846;2024-03-23T09:53:37;99838.63;;;5.58;87.95
85545;BME280;75982;52.834;13.846;2024-03-23T09:56:04;99840.28;;;5.77;88.58
85545;BME280;75982;52.834;13.846;2024-03-23T09:58:29;99841.91;;;5.61;89.62
85545;BME280;75982;52.834;13.846;2024-03-23T10:00:55;99836.44;;;5.67;86.49
85545;BME280;75982;52.834;13.846;2024-03-23T10:03:20;99834.53;;;5.33;84.40
85545;BME280;75982;52.834;13.846;2024-03-23T10:05:46;99837.78;;;5.39;84.61
85545;BME280;75982;52.834;13.846;2024-03-23T10:10:43;99837.00;;;5.55;85.93
85545;BME280;75982;52.834;13.846;2024-03-23T10:13:09;99837.41;;;5.46;84.96
85545;BME280;75982;52.834;13.846;2024-03-23T10:15:36;99840.69;;;5.50;84.10
85545;BME280;75982;52.834;13.846;2024-03-23T10:18:18;99853.00;;;5.45;84.49
85545;BME280;75982;52.834;13.846;2024-03-23T10:20:47;99860.53;;;5.30;83.64
85545;BME280;75982;52.834;13.846;2024-03-23T10:23:16;99850.66;;;5.20;85.12
85545;BME280;75982;52.834;13.846;2024-03-23T10:25:42;99858.50;;;5.56;86.00
85545;BME280;75982;52.834;13.846;2024-03-23T10:28:08;99866.25;;;5.56;83.70
85545;BME280;75982;52.834;13.846;2024-03-23T10:30:34;99869.88;;;5.33;85.52
85545;BME280;75982;52.834;13.846;2024-03-23T10:33:11;99878.91;;;5.43;86.39
85545;BME280;75982;52.834;13.846;2024-03-23T10:35:38;99877.34;;;5.20;84.02
85545;BME280;75982;52.834;13.846;2024-03-23T10:38:07;99879.41;;;5.12;83.62
85545;BME280;75982;52.834;13.846;2024-03-23T10:40:36;99881.84;;;5.36;83.89
85545;BME280;75982;52.834;13.846;2024-03-23T10:43:03;99889.31;;;5.42;84.16
85545;BME280;75982;52.834;13.846;2024-03-23T10:45:30;99891.06;;;5.41;86.32
85545;BME280;75982;52.834;13.846;2024-03-23T10:47:55;99887.94;;;5.53;84.69
85545;BME280;75982;52.834;13.846;2024-03-23T10:50:22;99879.63;;;5.47;85.03
85545;BME280;75982;52.834;13.846;2024-03-23T10:52:48;99868.16;;;5.71;82.99
85545;BME280;75982;52.834;13.846;2024-03-23T10:55:17;99866.91;;;5.42;78.22
85545;BME280;75982;52.834;13.846;2024-03-23T10:57:57;99869.53;;;5.78;83.34
85545;BME280;75982;52.834;13.846;2024-03-23T11:00:25;99872.72;;;5.85;82.99
85545;BME280;75982;52.834;13.846;2024-03-23T11:02:51;99877.56;;;5.92;83.07
85545;BME280;75982;52.834;13.846;2024-03-23T11:07:51;99883.78;;;5.88;84.24
85545;BME280;75982;52.834;13.846;2024-03-23T11:10:30;99880.84;;;5.96;84.06
85545;BME280;75982;52.834;13.846;2024-03-23T11:13:22;99877.88;;;6.03;85.23
85545;BME280;75982;52.834;13.846;2024-03-23T11:15:48;99874.63;;;6.17;84.60
85545;BME280;75982;52.834;13.846;2024-03-23T11:18:20;99870.13;;;6.03;85.31
85545;BME280;75982;52.834;13.846;2024-03-23T11:20:46;99867.59;;;5.83;85.39
85545;BME280;75982;52.834;13.846;2024-03-23T11:23:28;99882.72;;;5.55;86.30
85545;BME280;75982;52.834;13.846;2024-03-23T11:25:54;99891.34;;;5.93;85.71
85545;BME280;75982;52.834;13.846;2024-03-23T11:28:19;99884.03;;;6.01;86.65
85545;BME280;75982;52.834;13.846;2024-03-23T11:30:45;99909.41;;;6.11;84.63
85545;BME280;75982;52.834;13.846;2024-03-23T11:33:10;99900.31;;;6.21;84.99
85545;BME280;75982;52.834;13.846;2024-03-23T11:35:40;99901.63;;;6.30;83.98
85545;BME280;75982;52.834;13.846;2024-03-23T11:38:17;99901.72;;;6.46;83.98
85545;BME280;75982;52.834;13.846;2024-03-23T11:40:43;99904.06;;;6.50;85.53
85545;BME280;75982;52.834;13.846;2024-03-23T11:43:14;99896.47;;;6.47;83.47
85545;BME280;75982;52.834;13.846;2024-03-23T11:45:44;99894.94;;;6.43;83.94
85545;BME280;75982;52.834;13.846;2024-03-23T11:48:12;99879.63;;;6.39;83.42
85545;BME280;75982;52.834;13.846;2024-03-23T11:50:42;99881.81;;;6.29;85.22
85545;BME280;75982;52.834;13.846;2024-03-23T11:53:21;99876.97;;;6.40;85.16
85545;BME280;75982;52.834;13.846;2024-03-23T11:55:52;99880.56;;;6.55;84.96
85545;BME280;75982;52.834;13.846;2024-03-23T11:58:20;99891.06;;;6.69;83.71
85545;BME280;75982;52.834;13.846;2024-03-23T12:01:00;99892.06;;;6.84;84.04
85545;BME280;75982;52.834;13.846;2024-03-23T12:03:27;99895.34;;;6.87;83.30
85545;BME280;75982;52.834;13.846;2024-03-23T12:05:53;99896.25;;;6.86;81.60
85545;BME280;75982;52.834;13.846;2024-03-23T12:10:50;99893.38;;;6.75;82.74
85545;BME280;75982;52.834;13.846;2024-03-23T12:13:23;99897.00;;;6.88;79.81
85545;BME280;75982;52.834;13.846;2024-03-23T12:15:51;99907.38;;;6.88;80.31
85545;BME280;75982;52.834;13.846;2024-03-23T12:18:17;99896.94;;;6.90;81.41
85545;BME280;75982;52.834;13.846;2024-03-23T12:20:49;99895.56;;;7.00;81.63
85545;BME280;75982;52.834;13.846;2024-03-23T12:23:15;99895.94;;;6.92;82.51
85545;BME280;75982;52.834;13.846;2024-03-23T12:25:41;99899.44;;;7.08;80.60
85545;BME280;75982;52.834;13.846;2024-03-23T12:28:07;99896.06;;;7.06;81.02
85545;BME280;75982;52.834;13.846;2024-03-23T12:30:38;99905.38;;;7.10;80.44
85545;BME280;75982;52.834;13.846;2024-03-23T12:33:04;99900.78;;;7.33;80.57
85545;BME280;75982;52.834;13.846;2024-03-23T12:35:30;99906.38;;;7.25;79.57
85545;BME280;75982;52.834;13.846;2024-03-23T12:37:56;99904.81;;;7.38;80.77
85545;BME280;75982;52.834;13.846;2024-03-23T12:40:21;99900.19;;;7.28;79.29
85545;BME280;75982;52.834;13.846;2024-03-23T12:42:47;99916.47;;;7.47;80.57
85545;BME280;75982;52.834;13.846;2024-03-23T12:45:12;99900.53;;;7.37;80.96
85545;BME280;75982;52.834;13.846;2024-03-23T12:47:38;99891.91;;;7.37;81.37
85545;BME280;75982;52.834;13.846;2024-03-23T12:50:04;99891.56;;;7.27;81.62
85545;BME280;75982;52.834;13.846;2024-03-23T12:52:30;99896.28;;;7.19;82.85
85545;BME280;75982;52.834;13.846;2024-03-23T12:54:56;99893.53;;;7.22;82.48
85545;BME280;75982;52.834;13.846;2024-03-23T12:57:25;99890.44;;;7.15;80.37
85545;BME280;75982;52.834;13.846;2024-03-23T12:59:54;99884.41;;;7.15;82.42
85545;BME280;75982;52.834;13.846;2024-03-23T13:02:20;99890.81;;;7.25;81.88
85545;BME280;75982;52.834;13.846;2024-03-23T13:04:49;99881.47;;;7.38;82.00
85545;BME280;75982;52.834;13.846;2024-03-23T13:07:14;99888.84;;;7.46;81.95
85545;BME280;75982;52.834;13.846;2024-03-23T13:09:40;99886.41;;;7.43;82.62
85545;BME280;75982;52.834;13.846;2024-03-23T13:12:06;99874.75;;;7.34;81.67
85545;BME280;75982;52.834;13.846;2024-03-23T13:14:31;99885.78;;;7.55;82.20
85545;BME280;75982;52.834;13.846;2024-03-23T13:16:57;99895.47;;;7.67;82.44
85545;BME280;75982;52.834;13.846;2024-03-23T13:19:23;99877.72;;;7.59;80.57
85545;BME280;75982;52.834;13.846;2024-03-23T13:21:48;99885.88;;;7.69;81.67
85545;BME280;75982;52.834;13.846;2024-03-23T13:24:14;99893.69;;;7.85;81.60
85545;BME280;75982;52.834;13.846;2024-03-23T13:26:39;99885.78;;;8.02;81.95
85545;BME280;75982;52.834;13.846;2024-03-23T13:29:05;99879.50;;;8.06;82.21
85545;BME280;75982;52.834;13.846;2024-03-23T13:31:30;99876.84;;;8.23;82.45
85545;BME280;75982;52.834;13.846;2024-03-23T13:33:56;99875.41;;;8.49;83.33
85545;BME280;75982;52.834;13.846;2024-03-23T13:36:22;99875.44;;;8.63;81.47
85545;BME280;75982;52.834;13.846;2024-03-23T13:38:47;99882.59;;;8.74;79.77
85545;BME280;75982;52.834;13.846;2024-03-23T13:41:13;99877.81;;;8.96;78.52
85545;BME280;75982;52.834;13.846;2024-03-23T13:43:39;99878.06;;;9.21;79.31
85545;BME280;75982;52.834;13.846;2024-03-23T13:46:04;99885.19;;;9.46;78.23
85545;BME280;75982;52.834;13.846;2024-03-23T13:48:30;99883.06;;;9.66;79.75
85545;BME280;75982;52.834;13.846;2024-03-23T13:50:59;99890.69;;;9.70;74.73
85545;BME280;75982;52.834;13.846;2024-03-23T13:53:25;99882.00;;;9.83;75.77
85545;BME280;75982;52.834;13.846;2024-03-23T13:55:51;99878.97;;;9.77;75.15
85545;BME280;75982;52.834;13.846;2024-03-23T13:58:17;99881.28;;;9.67;75.04